createdAt,value
2019-05-01T00:03:36.419Z,12.30
2019-05-01T00:08:42.960Z,12.30
2019-05-01T00:13:51.962Z,12.30
2019-05-01T00:18:59.599Z,12.20
2019-05-01T00:24:07.243Z,12.10
2019-05-01T00:29:13.830Z,12.10
2019-05-01T00:34:20.970Z,12.10
2019-05-01T00:39:27.981Z,12.00
2019-05-01T00:44:34.788Z,12.00
2019-05-01T00:49:41.714Z,12.00
2019-05-01T00:54:49.902Z,11.90
2019-05-01T01:00:05.060Z,11.90
2019-05-01T01:05:11.361Z,11.80
2019-05-01T01:10:17.458Z,11.80
2019-05-01T01:15:26.235Z,11.70
2019-05-01T01:20:33.318Z,11.70
2019-05-01T01:25:39.733Z,11.70
2019-05-01T01:30:56.756Z,11.60
2019-05-01T01:36:04.009Z,11.50
2019-05-01T01:41:10.320Z,11.50
2019-05-01T01:46:17.989Z,11.40
2019-05-01T01:51:24.773Z,11.40
2019-05-01T01:56:30.396Z,11.30
2019-05-01T02:01:54.037Z,11.30
2019-05-01T02:07:01.702Z,11.20
2019-05-01T02:12:11.188Z,11.20
2019-05-01T02:17:20.229Z,11.10
2019-05-01T02:22:27.873Z,11.00
2019-05-01T02:27:41.242Z,11.00
2019-05-01T02:32:48.258Z,10.90
2019-05-01T02:37:55.864Z,10.90
2019-05-01T02:43:03.823Z,10.90
2019-05-01T02:48:11.891Z,10.80
2019-05-01T02:53:22.983Z,10.80
2019-05-01T02:58:29.452Z,10.70
2019-05-01T03:03:36.249Z,10.70
2019-05-01T03:08:42.705Z,10.60
2019-05-01T03:13:51.033Z,10.60
2019-05-01T03:19:00.674Z,10.60
2019-05-01T03:24:25.494Z,10.50
2019-05-01T03:29:31.222Z,10.50
2019-05-01T03:34:38.623Z,10.40
2019-05-01T03:39:45.586Z,10.40
2019-05-01T03:44:53.391Z,10.40
2019-05-01T03:49:59.440Z,10.50
2019-05-01T03:55:05.313Z,10.50
2019-05-01T04:00:13.812Z,10.60
2019-05-01T04:05:22.429Z,10.60
2019-05-01T04:10:27.573Z,10.80
2019-05-01T04:15:34.940Z,10.80
2019-05-01T04:20:41.663Z,10.90
2019-05-01T04:25:49.010Z,10.90
2019-05-01T04:31:20.193Z,10.90
2019-05-01T04:36:31.547Z,11.00
2019-05-01T04:41:37.199Z,11.00
2019-05-01T04:46:42.679Z,11.10
2019-05-01T04:51:50.379Z,11.10
2019-05-01T04:56:57.437Z,11.20
2019-05-01T05:02:07.414Z,11.20
2019-05-01T05:07:15.268Z,11.20
2019-05-01T05:12:41.204Z,11.10
2019-05-01T05:17:46.525Z,11.20
2019-05-01T05:22:53.673Z,11.20
2019-05-01T05:28:00.508Z,11.20
2019-05-01T05:33:18.135Z,11.20
2019-05-01T05:38:39.520Z,11.20
2019-05-01T05:43:48.844Z,11.20
2019-05-01T05:48:56.128Z,11.30
2019-05-01T05:54:31.510Z,11.30
2019-05-01T06:22:53.046Z,11.50
2019-05-01T06:27:59.563Z,11.60
2019-05-01T06:33:09.413Z,11.60
2019-05-01T06:38:18.266Z,11.60
2019-05-01T06:44:08.319Z,11.60
2019-05-01T06:49:29.288Z,11.70
2019-05-01T07:00:43.057Z,11.70
2019-05-01T07:05:54.455Z,11.70
2019-05-01T07:10:58.864Z,11.70
2019-05-01T07:16:09.287Z,11.80
2019-05-01T07:26:47.925Z,11.80
2019-05-01T07:31:57.274Z,11.90
2019-05-01T07:37:08.511Z,11.90
2019-05-01T07:42:34.414Z,11.90
2019-05-01T07:47:44.333Z,12.00
2019-05-01T07:52:52.243Z,12.00
2019-05-01T07:57:59.234Z,12.10
2019-05-01T08:03:07.287Z,12.20
2019-05-01T08:08:13.365Z,12.20
2019-05-01T08:13:20.102Z,12.40
2019-05-01T08:18:32.613Z,12.40
2019-05-01T08:23:42.679Z,12.40
2019-05-01T08:29:06.925Z,12.40
2019-05-01T08:34:15.030Z,12.40
2019-05-01T08:39:27.762Z,12.40
2019-05-01T08:45:06.914Z,12.50
2019-05-01T08:50:25.095Z,12.60
2019-05-01T08:55:35.390Z,12.60
2019-05-01T09:00:42.845Z,12.80
2019-05-01T09:05:52.138Z,12.80
2019-05-01T09:11:02.338Z,12.80
2019-05-01T09:16:12.337Z,12.90
2019-05-01T09:21:18.722Z,13.00
2019-05-01T09:26:45.433Z,13.10
2019-05-01T09:32:40.950Z,13.10
2019-05-01T09:38:07.333Z,13.20
2019-05-01T09:43:19.064Z,13.30
2019-05-01T09:48:25.965Z,13.30
2019-05-01T09:53:47.364Z,13.40
2019-05-01T09:58:54.765Z,13.40
2019-05-01T10:04:01.632Z,13.50
2019-05-01T10:09:12.099Z,13.50
2019-05-01T10:14:36.364Z,13.50
2019-05-01T10:19:42.726Z,13.60
2019-05-01T10:24:48.171Z,13.60
2019-05-01T10:30:14.279Z,13.70
2019-05-01T10:35:42.970Z,13.80
2019-05-01T10:40:48.047Z,13.90
2019-05-01T10:45:54.858Z,14.00
2019-05-01T10:51:00.992Z,14.20
2019-05-01T10:56:26.342Z,14.20
2019-05-01T11:01:51.187Z,14.30
2019-05-01T11:06:58.141Z,14.40
2019-05-01T11:12:03.573Z,14.50
2019-05-01T11:17:09.736Z,14.60
2019-05-01T11:22:16.406Z,14.80
2019-05-01T11:27:23.380Z,14.90
2019-05-01T11:32:48.344Z,14.90
2019-05-01T11:38:03.314Z,15.00
2019-05-01T11:43:09.017Z,15.20
2019-05-01T11:48:17.867Z,15.20
2019-05-01T11:53:24.629Z,15.30
2019-05-01T11:58:32.399Z,15.50
2019-05-01T12:03:44.401Z,15.60
2019-05-01T12:08:54.963Z,15.60
2019-05-01T12:14:02.077Z,15.70
2019-05-01T12:19:09.010Z,15.70
2019-05-01T12:24:15.035Z,15.80
2019-05-01T12:29:20.433Z,15.80
2019-05-01T12:34:25.834Z,16.00
2019-05-01T12:39:33.025Z,16.20
2019-05-01T12:44:39.060Z,16.30
2019-05-01T12:49:46.970Z,16.40
2019-05-01T12:54:59.346Z,16.50
2019-05-01T13:00:08.952Z,16.50
2019-05-01T13:05:12.825Z,16.50
2019-05-01T13:10:19.178Z,16.60
2019-05-01T13:15:27.715Z,17.10
2019-05-01T13:20:33.386Z,17.60
2019-05-01T13:25:40.368Z,18.00
2019-05-01T13:30:57.112Z,18.40
2019-05-01T13:36:08.397Z,18.60
2019-05-01T13:41:14.136Z,19.00
2019-05-01T13:46:20.824Z,19.20
2019-05-01T13:51:27.151Z,19.40
2019-05-01T13:56:35.509Z,19.60
2019-05-01T14:01:41.381Z,19.70
2019-05-01T14:06:47.818Z,19.90
2019-05-01T14:12:05.386Z,20.00
2019-05-01T14:17:12.357Z,20.20
2019-05-01T14:22:40.886Z,20.30
2019-05-01T14:27:48.314Z,20.50
2019-05-01T14:32:56.205Z,20.70
2019-05-01T14:38:03.828Z,21.00
2019-05-01T14:43:10.158Z,21.10
2019-05-01T14:48:18.436Z,21.20
2019-05-01T14:53:25.277Z,21.40
2019-05-01T14:58:31.947Z,21.50
2019-05-01T15:03:38.303Z,21.70
2019-05-01T15:08:49.389Z,21.80
2019-05-01T15:14:22.715Z,21.80
2019-05-01T15:19:31.786Z,21.80
2019-05-01T15:24:38.955Z,21.90
2019-05-01T15:29:47.526Z,21.70
2019-05-01T15:34:54.281Z,21.70
2019-05-01T15:40:10.280Z,21.70
2019-05-01T15:45:18.493Z,21.70
2019-05-01T15:50:27.006Z,21.70
2019-05-01T15:55:33.586Z,21.70
2019-05-01T16:00:38.841Z,21.50
2019-05-01T16:05:45.537Z,21.10
2019-05-01T16:11:05.492Z,21.00
2019-05-01T16:16:12.687Z,21.00
2019-05-01T16:21:19.125Z,20.80
2019-05-01T16:26:25.055Z,20.70
2019-05-01T16:31:33.139Z,20.60
2019-05-01T16:36:38.703Z,20.50
2019-05-01T16:41:47.368Z,20.50
2019-05-01T16:46:55.181Z,20.30
2019-05-01T16:52:04.881Z,20.10
2019-05-01T16:57:14.287Z,20.00
2019-05-01T17:02:47.702Z,19.80
2019-05-01T17:08:17.134Z,19.80
2019-05-01T17:13:24.165Z,19.80
2019-05-01T17:18:30.408Z,19.60
2019-05-01T17:23:39.319Z,19.40
2019-05-01T17:28:48.901Z,19.20
2019-05-01T17:33:55.495Z,19.10
2019-05-01T17:39:01.875Z,18.90
2019-05-01T17:44:09.324Z,18.70
2019-05-01T17:49:18.149Z,18.60
2019-05-01T17:54:27.005Z,18.50
2019-05-01T17:59:34.385Z,18.30
2019-05-01T18:04:54.453Z,18.20
2019-05-01T18:10:01.118Z,18.10
2019-05-01T18:15:08.277Z,18.00
2019-05-01T18:20:21.106Z,17.90
2019-05-01T18:25:37.633Z,17.80
2019-05-01T18:30:46.599Z,17.60
2019-05-01T18:35:54.500Z,17.40
2019-05-01T18:41:06.799Z,17.30
2019-05-01T18:46:14.843Z,17.10
2019-05-01T18:51:25.004Z,16.90
2019-05-01T18:56:31.499Z,16.70
2019-05-01T19:01:37.672Z,16.40
2019-05-01T19:06:48.517Z,16.20
2019-05-01T19:11:57.349Z,16.00
2019-05-01T19:17:29.081Z,15.90
2019-05-01T19:22:35.844Z,15.70
2019-05-01T19:27:41.457Z,15.50
2019-05-01T19:32:49.145Z,15.40
2019-05-01T19:37:57.607Z,15.20
2019-05-01T19:43:05.482Z,15.10
2019-05-01T19:48:11.250Z,15.00
2019-05-01T19:53:17.794Z,14.80
2019-05-01T19:58:24.443Z,14.70
2019-05-01T20:03:36.299Z,14.60
2019-05-01T20:08:39.139Z,14.50
2019-05-01T20:13:45.971Z,14.40
2019-05-01T20:18:52.669Z,14.30
2019-05-01T20:24:04.497Z,14.20
2019-05-01T20:29:09.788Z,14.10
2019-05-01T20:34:18.730Z,14.00
2019-05-01T20:39:26.053Z,13.90
2019-05-01T20:44:32.181Z,13.80
2019-05-01T20:49:41.377Z,13.70
2019-05-01T20:54:46.823Z,13.70
2019-05-01T20:59:52.966Z,13.60
2019-05-01T21:05:17.980Z,13.50
2019-05-01T21:10:29.811Z,13.50
2019-05-01T21:15:35.543Z,13.40
2019-05-01T21:20:43.866Z,13.30
2019-05-01T21:25:53.898Z,13.20
2019-05-01T21:31:00.487Z,13.20
2019-05-01T21:36:08.586Z,13.10
2019-05-01T21:41:18.128Z,13.10
2019-05-01T21:46:23.757Z,13.00
2019-05-01T21:51:32.846Z,13.00
2019-05-01T21:56:41.569Z,12.90
2019-05-01T22:01:47.958Z,12.80
2019-05-01T22:06:54.190Z,12.80
2019-05-01T22:12:00.643Z,12.80
2019-05-01T22:17:15.815Z,12.70
2019-05-01T22:22:38.681Z,12.70
2019-05-01T22:27:50.745Z,12.60
2019-05-01T22:32:58.232Z,12.60
2019-05-01T22:38:06.255Z,12.50
2019-05-01T22:43:14.921Z,12.50
2019-05-01T22:48:21.139Z,12.40
2019-05-01T22:53:27.478Z,12.30
2019-05-01T22:58:33.899Z,12.30
2019-05-01T23:03:58.991Z,12.20
2019-05-01T23:09:07.058Z,12.10
2019-05-01T23:14:14.138Z,12.10
2019-05-01T23:19:22.705Z,12.10
2019-05-01T23:24:27.065Z,12.00
2019-05-01T23:29:36.688Z,12.00
2019-05-01T23:34:44.030Z,11.90
2019-05-01T23:39:50.785Z,11.80
2019-05-01T23:44:57.949Z,11.80
2019-05-01T23:50:03.410Z,11.80
2019-05-01T23:55:09.934Z,11.70
